createdAt,value
2024-02-14T00:01:20.143Z,56.14
2024-02-14T00:03:22.735Z,56.49
2024-02-14T00:05:24.441Z,56.17
2024-02-14T00:07:27.949Z,56.30
2024-02-14T00:09:29.434Z,56.02
2024-02-14T00:11:30.899Z,56.01
2024-02-14T00:13:35.153Z,55.55
2024-02-14T00:15:36.942Z,55.68
2024-02-14T00:17:38.523Z,55.74
2024-02-14T00:19:40.614Z,55.26
2024-02-14T00:21:42.195Z,55.30
2024-02-14T00:23:44.894Z,55.94
2024-02-14T00:25:46.950Z,56.17
2024-02-14T00:27:48.906Z,56.09
2024-02-14T00:29:50.448Z,56.07
2024-02-14T00:31:51.857Z,56.04
2024-02-14T00:33:53.447Z,55.79
2024-02-14T00:35:54.964Z,56.38
2024-02-14T00:37:56.746Z,55.83
2024-02-14T00:39:59.219Z,56.33
2024-02-14T00:42:00.699Z,55.97
2024-02-14T00:44:02.109Z,56.04
2024-02-14T00:46:03.589Z,55.97
2024-02-14T00:48:05.198Z,55.90
2024-02-14T00:50:06.752Z,56.02
2024-02-14T00:52:08.146Z,55.91
2024-02-14T00:54:09.560Z,55.99
2024-02-14T00:56:11.252Z,56.02
2024-02-14T00:58:12.602Z,55.96
2024-02-14T01:00:14.520Z,56.51
2024-02-14T01:02:15.885Z,46.22
2024-02-14T01:04:17.558Z,52.82
2024-02-14T01:06:19.749Z,52.38
2024-02-14T01:08:21.990Z,53.04
2024-02-14T01:10:23.413Z,53.83
2024-02-14T01:12:24.770Z,53.81
2024-02-14T01:14:26.212Z,54.63
2024-02-14T01:16:27.894Z,54.59
2024-02-14T01:18:29.966Z,55.10
2024-02-14T01:20:31.550Z,55.77
2024-02-14T01:22:32.964Z,55.71
2024-02-14T01:24:34.336Z,55.92
2024-02-14T01:26:35.759Z,55.96
2024-02-14T01:28:37.163Z,55.76
2024-02-14T01:30:38.550Z,56.05
2024-02-14T01:32:40.351Z,56.35
2024-02-14T01:34:43.787Z,56.47
2024-02-14T01:36:45.187Z,56.37
2024-02-14T01:38:46.566Z,56.49
2024-02-14T01:40:47.999Z,56.61
2024-02-14T01:42:49.366Z,56.88
2024-02-14T01:44:50.827Z,56.66
2024-02-14T01:46:54.050Z,56.58
2024-02-14T01:48:55.637Z,57.30
2024-02-14T01:50:57.306Z,56.84
2024-02-14T01:52:58.688Z,57.10
2024-02-14T01:55:00.113Z,57.57
2024-02-14T01:57:01.662Z,57.67
2024-02-14T01:59:03.086Z,57.94
2024-02-14T02:01:05.584Z,57.70
2024-02-14T02:03:07.083Z,58.01
2024-02-14T02:05:08.612Z,57.83
2024-02-14T02:07:10.014Z,58.06
2024-02-14T02:09:11.513Z,58.13
2024-02-14T02:11:12.972Z,58.17
2024-02-14T02:13:17.035Z,58.18
2024-02-14T02:15:18.881Z,58.54
2024-02-14T02:17:20.287Z,58.65
2024-02-14T02:19:21.776Z,58.71
2024-02-14T02:21:25.016Z,58.88
2024-02-14T02:23:26.636Z,58.70
2024-02-14T02:25:28.228Z,58.97
2024-02-14T02:27:29.707Z,58.92
2024-02-14T02:29:32.384Z,58.82
2024-02-14T02:31:34.080Z,58.93
2024-02-14T02:33:35.673Z,59.43
2024-02-14T02:35:37.270Z,59.48
2024-02-14T02:37:38.639Z,59.38
2024-02-14T02:39:40.703Z,59.01
2024-02-14T02:41:42.116Z,58.92
2024-02-14T02:43:44.183Z,59.24
2024-02-14T02:45:45.570Z,58.84
2024-02-14T02:47:47.799Z,59.23
2024-02-14T02:49:49.343Z,59.13
2024-02-14T02:51:50.737Z,59.54
2024-02-14T02:53:55.294Z,59.20
2024-02-14T02:55:58.391Z,59.45
2024-02-14T02:58:00.151Z,59.09
2024-02-14T03:00:01.846Z,59.26
2024-02-14T03:02:03.368Z,59.08
2024-02-14T03:04:04.822Z,58.87
2024-02-14T03:06:06.365Z,58.92
2024-02-14T03:08:09.276Z,58.97
2024-02-14T03:10:10.658Z,58.91
2024-02-14T03:12:12.218Z,59.14
2024-02-14T03:14:13.758Z,59.44
2024-02-14T03:16:16.005Z,59.81
2024-02-14T03:18:17.490Z,60.04
2024-02-14T03:20:21.116Z,59.63
2024-02-14T03:22:22.601Z,59.83
2024-02-14T03:24:26.476Z,59.88
2024-02-14T03:26:28.150Z,60.34
2024-02-14T03:28:30.703Z,60.21
2024-02-14T03:30:33.315Z,60.38
2024-02-14T03:32:34.743Z,60.70
2024-02-14T03:34:37.132Z,61.00
2024-02-14T03:36:38.699Z,60.93
2024-02-14T03:38:41.885Z,60.87
2024-02-14T03:40:43.397Z,61.28
2024-02-14T03:42:45.222Z,61.34
2024-02-14T03:44:47.136Z,61.00
2024-02-14T03:46:49.013Z,61.00
2024-02-14T03:48:50.635Z,60.98
2024-02-14T03:50:52.245Z,61.18
2024-02-14T03:52:54.531Z,61.28
2024-02-14T03:54:55.896Z,60.86
2024-02-14T03:56:57.425Z,60.80
2024-02-14T03:58:58.813Z,61.23
2024-02-14T04:01:00.289Z,61.38
2024-02-14T04:03:01.756Z,61.35
2024-02-14T04:05:08.190Z,61.20
2024-02-14T04:07:09.878Z,61.04
2024-02-14T04:09:11.359Z,61.49
2024-02-14T04:11:14.582Z,61.44
2024-02-14T04:13:16.519Z,61.27
2024-02-14T04:15:18.678Z,61.47
2024-02-14T04:17:20.114Z,61.26
2024-02-14T04:19:21.652Z,61.59
2024-02-14T04:21:23.234Z,61.80
2024-02-14T04:23:26.111Z,61.59
2024-02-14T04:25:27.572Z,61.41
2024-02-14T04:27:29.158Z,62.00
2024-02-14T04:29:31.623Z,61.56
2024-02-14T04:31:33.055Z,62.09
2024-02-14T04:33:34.726Z,62.07
2024-02-14T04:35:36.241Z,62.26
2024-02-14T04:37:37.631Z,62.61
2024-02-14T04:39:39.037Z,62.65
2024-02-14T04:41:53.408Z,62.39
2024-02-14T04:43:58.919Z,62.50
2024-02-14T04:46:00.849Z,62.46
2024-02-14T04:48:03.068Z,62.82
2024-02-14T04:50:05.333Z,62.83
2024-02-14T04:52:09.014Z,62.76
2024-02-14T04:54:11.106Z,62.63
2024-02-14T04:56:12.507Z,62.39
2024-02-14T04:58:13.925Z,62.30
2024-02-14T05:00:15.440Z,62.82
2024-02-14T05:02:16.929Z,62.56
2024-02-14T05:04:18.768Z,62.46
2024-02-14T05:06:20.213Z,62.88
2024-02-14T05:08:21.854Z,62.73
2024-02-14T05:10:23.252Z,62.75
2024-02-14T05:12:24.678Z,62.76
2024-02-14T05:14:26.143Z,62.51
2024-02-14T05:16:28.795Z,62.32
2024-02-14T05:18:30.843Z,62.78
2024-02-14T05:20:32.846Z,62.85
2024-02-14T05:22:34.243Z,63.20
2024-02-14T05:24:38.577Z,62.89
2024-02-14T05:26:39.987Z,62.93
2024-02-14T05:28:41.376Z,63.11
2024-02-14T05:30:42.831Z,63.29
2024-02-14T05:32:44.341Z,63.19
2024-02-14T05:34:45.782Z,63.57
2024-02-14T05:36:47.400Z,63.27
2024-02-14T05:38:50.101Z,63.30
2024-02-14T05:40:51.465Z,63.12
2024-02-14T05:42:52.925Z,63.24
2024-02-14T05:44:54.341Z,62.89
2024-02-14T05:46:56.122Z,63.05
2024-02-14T05:48:58.642Z,63.26
2024-02-14T05:51:00.267Z,63.19
2024-02-14T05:53:01.871Z,63.47
2024-02-14T05:55:04.562Z,62.91
2024-02-14T05:57:06.539Z,63.30
2024-02-14T05:59:08.004Z,62.85
2024-02-14T06:01:09.500Z,63.09
2024-02-14T06:03:11.009Z,62.95
2024-02-14T06:05:12.447Z,62.76
2024-02-14T06:07:13.870Z,62.84
2024-02-14T06:09:15.256Z,63.04
2024-02-14T06:11:17.307Z,62.63
2024-02-14T06:13:18.675Z,62.86
2024-02-14T06:15:20.166Z,63.15
2024-02-14T06:17:21.629Z,62.85
2024-02-14T06:19:23.562Z,62.34
2024-02-14T06:21:25.055Z,62.48
2024-02-14T06:23:26.467Z,62.27
2024-02-14T06:25:28.156Z,62.63
2024-02-14T06:27:29.667Z,62.05
2024-02-14T06:29:31.054Z,62.32
2024-02-14T06:31:32.432Z,61.95
2024-02-14T06:33:34.015Z,62.38
2024-02-14T06:35:35.769Z,62.49
2024-02-14T06:37:45.215Z,62.66
2024-02-14T06:39:55.033Z,62.73
2024-02-14T06:41:56.456Z,62.63
2024-02-14T06:43:58.572Z,62.33
2024-02-14T06:45:59.993Z,62.43
2024-02-14T06:48:01.448Z,62.80
2024-02-14T06:50:02.950Z,62.69
2024-02-14T06:52:04.387Z,62.87
2024-02-14T06:54:05.877Z,63.16
2024-02-14T06:56:07.305Z,63.69
2024-02-14T06:58:08.692Z,63.99
2024-02-14T07:00:10.452Z,64.11
2024-02-14T07:02:14.000Z,64.39
2024-02-14T07:04:15.928Z,63.69
2024-02-14T07:06:18.540Z,64.40
2024-02-14T07:08:20.005Z,63.95
2024-02-14T07:10:21.445Z,63.84
2024-02-14T07:12:22.944Z,63.63
2024-02-14T07:14:24.419Z,64.08
2024-02-14T07:16:25.819Z,63.82
2024-02-14T07:18:27.424Z,63.63
2024-02-14T07:20:29.023Z,63.75
2024-02-14T07:22:31.671Z,64.15
2024-02-14T07:24:33.153Z,64.22
2024-02-14T07:26:34.582Z,64.65
2024-02-14T07:28:36.046Z,64.15
2024-02-14T07:30:37.458Z,64.31
2024-02-14T07:32:39.546Z,64.07
2024-02-14T07:34:41.815Z,63.33
2024-02-14T07:36:47.326Z,63.81
2024-02-14T07:38:48.803Z,62.92
2024-02-14T07:40:50.186Z,62.98
2024-02-14T07:42:51.606Z,62.97
2024-02-14T07:44:53.066Z,63.00
2024-02-14T07:46:54.602Z,63.20
2024-02-14T07:48:56.190Z,63.13
2024-02-14T07:50:57.772Z,62.59
2024-02-14T07:52:59.262Z,62.76
2024-02-14T07:55:00.637Z,62.25
2024-02-14T07:57:02.102Z,62.32
2024-02-14T07:59:03.533Z,62.56
2024-02-14T08:01:05.460Z,62.64
2024-02-14T08:03:07.359Z,62.23
2024-02-14T08:05:10.042Z,62.15
2024-02-14T08:07:11.550Z,61.88
2024-02-14T08:09:13.006Z,61.96
2024-02-14T08:11:14.441Z,62.05
2024-02-14T08:13:17.512Z,62.02
2024-02-14T08:15:19.052Z,61.94
2024-02-14T08:17:20.568Z,62.50
2024-02-14T08:19:22.154Z,62.39
2024-02-14T08:21:24.047Z,57.70
2024-02-14T08:23:26.042Z,47.90
2024-02-14T08:25:27.927Z,46.81
2024-02-14T08:27:29.530Z,45.70
2024-02-14T08:29:30.954Z,44.24
2024-02-14T08:31:33.438Z,43.91
2024-02-14T08:33:34.976Z,42.59
2024-02-14T08:35:41.892Z,44.16
2024-02-14T08:37:44.731Z,46.83
2024-02-14T08:39:46.211Z,46.50
2024-02-14T08:41:48.269Z,47.24
2024-02-14T08:43:49.717Z,47.58
2024-02-14T08:45:52.694Z,48.51
2024-02-14T08:47:54.285Z,48.84
2024-02-14T08:49:56.202Z,49.39
2024-02-14T08:51:57.574Z,50.02
2024-02-14T08:54:00.830Z,50.79
2024-02-14T08:56:02.274Z,50.85
2024-02-14T08:58:03.694Z,52.99
2024-02-14T09:00:05.753Z,52.49
2024-02-14T09:02:07.263Z,51.46
2024-02-14T09:04:08.803Z,51.34
2024-02-14T09:06:10.821Z,51.67
2024-02-14T09:08:12.268Z,51.95
2024-02-14T09:10:14.055Z,52.90
2024-02-14T09:12:15.603Z,53.02
2024-02-14T09:14:17.127Z,51.78
2024-02-14T09:16:18.558Z,52.30
2024-02-14T09:18:20.426Z,52.31
2024-02-14T09:20:22.055Z,53.91
2024-02-14T09:22:23.547Z,52.64
2024-02-14T09:24:24.970Z,53.80
2024-02-14T09:26:27.734Z,53.62
2024-02-14T09:28:29.200Z,54.46
2024-02-14T09:30:38.399Z,54.41
2024-02-14T09:32:40.878Z,55.33
2024-02-14T09:34:42.614Z,55.56
2024-02-14T09:36:44.219Z,54.92
2024-02-14T09:38:45.858Z,53.33
2024-02-14T09:40:47.266Z,54.50
2024-02-14T09:42:48.661Z,54.05
2024-02-14T09:44:50.084Z,55.78
2024-02-14T09:46:51.519Z,54.55
2024-02-14T09:48:53.086Z,54.61
2024-02-14T09:50:54.622Z,55.67
2024-02-14T09:52:56.106Z,54.72
2024-02-14T09:54:57.531Z,55.84
2024-02-14T09:56:58.946Z,55.88
2024-02-14T09:59:01.699Z,56.03
2024-02-14T10:01:03.182Z,56.28
2024-02-14T10:03:04.659Z,56.93
2024-02-14T10:05:06.266Z,55.87
2024-02-14T10:07:07.722Z,56.21
2024-02-14T10:09:11.349Z,56.43
2024-02-14T10:11:12.791Z,56.79
2024-02-14T10:13:14.150Z,56.40
2024-02-14T10:15:15.603Z,56.48
2024-02-14T10:17:17.176Z,57.02
2024-02-14T10:19:18.877Z,57.20
2024-02-14T10:21:20.744Z,56.83
2024-02-14T10:23:22.167Z,56.89
2024-02-14T10:25:23.547Z,56.93
2024-02-14T10:27:24.912Z,57.05
2024-02-14T10:29:26.272Z,57.14
2024-02-14T10:31:27.757Z,57.29
2024-02-14T10:33:30.732Z,57.43
2024-02-14T10:35:35.358Z,57.42
2024-02-14T10:37:37.341Z,57.81
2024-02-14T10:39:39.562Z,58.22
2024-02-14T10:41:40.969Z,58.25
2024-02-14T10:43:42.378Z,58.51
2024-02-14T10:45:44.220Z,58.06
2024-02-14T10:47:46.248Z,58.58
2024-02-14T10:49:47.764Z,58.36
2024-02-14T10:51:50.156Z,58.29
2024-02-14T10:53:51.840Z,58.00
2024-02-14T10:55:53.268Z,58.19
2024-02-14T10:57:55.247Z,58.23
2024-02-14T10:59:56.611Z,57.95
2024-02-14T11:01:58.478Z,58.10
2024-02-14T11:04:00.119Z,57.83
2024-02-14T11:06:03.717Z,57.85
2024-02-14T11:08:05.202Z,57.90
2024-02-14T11:10:06.710Z,57.72
2024-02-14T11:12:09.448Z,57.77
2024-02-14T11:14:11.269Z,57.77
2024-02-14T11:16:12.672Z,57.58
2024-02-14T11:18:14.313Z,57.34
2024-02-14T11:20:15.978Z,57.32
2024-02-14T11:22:17.466Z,57.33
2024-02-14T11:24:19.288Z,57.62
2024-02-14T11:26:21.173Z,57.22
2024-02-14T11:28:22.678Z,57.05
2024-02-14T11:30:24.130Z,57.04
2024-02-14T11:32:25.479Z,57.07
2024-02-14T11:34:26.953Z,57.01
2024-02-14T11:36:28.380Z,57.47
2024-02-14T11:38:31.198Z,56.78
2024-02-14T11:40:32.821Z,57.00
2024-02-14T11:42:34.260Z,57.59
2024-02-14T11:44:38.796Z,57.33
2024-02-14T11:46:40.250Z,57.70
2024-02-14T11:48:43.204Z,58.00
2024-02-14T11:50:45.965Z,58.38
2024-02-14T11:52:47.336Z,58.27
2024-02-14T11:54:51.844Z,58.68
2024-02-14T11:56:53.432Z,58.60
2024-02-14T11:58:54.896Z,58.77
2024-02-14T12:00:56.342Z,59.18
2024-02-14T12:02:58.437Z,58.85
2024-02-14T12:05:00.315Z,59.26
2024-02-14T12:07:01.953Z,59.04
2024-02-14T12:09:06.669Z,59.36
2024-02-14T12:11:08.519Z,59.39
2024-02-14T12:13:09.993Z,59.77
2024-02-14T12:15:12.163Z,60.00
2024-02-14T12:17:13.617Z,59.91
2024-02-14T12:19:17.264Z,59.80
2024-02-14T12:21:19.348Z,60.14
2024-02-14T12:23:21.987Z,59.54
2024-02-14T12:25:24.155Z,59.52
2024-02-14T12:27:25.570Z,59.37
2024-02-14T12:29:28.040Z,59.53
2024-02-14T12:31:31.317Z,59.23
2024-02-14T12:33:33.721Z,59.43
2024-02-14T12:35:36.813Z,59.54
2024-02-14T12:37:38.767Z,59.41
2024-02-14T12:39:41.749Z,59.46
2024-02-14T12:41:43.408Z,59.42
2024-02-14T12:43:44.923Z,59.37
2024-02-14T12:45:46.376Z,59.30
2024-02-14T12:47:47.864Z,58.86
2024-02-14T12:49:50.028Z,58.86
2024-02-14T12:51:51.455Z,59.12
2024-02-14T12:53:52.866Z,58.49
2024-02-14T12:55:54.377Z,58.34
2024-02-14T12:57:55.784Z,58.62
2024-02-14T12:59:57.429Z,58.13
2024-02-14T13:01:59.006Z,58.51
2024-02-14T13:04:01.668Z,58.41
2024-02-14T13:06:03.168Z,58.10
2024-02-14T13:08:04.630Z,58.35
2024-02-14T13:10:06.099Z,58.03
2024-02-14T13:12:10.861Z,58.36
2024-02-14T13:14:12.426Z,58.24
2024-02-14T13:16:13.797Z,57.86
2024-02-14T13:18:15.493Z,57.82
2024-02-14T13:20:17.669Z,57.80
2024-02-14T13:22:19.126Z,58.10
2024-02-14T13:24:20.682Z,58.24
2024-02-14T13:26:22.094Z,58.43
2024-02-14T13:28:23.467Z,58.42
2024-02-14T13:30:25.330Z,58.44
2024-02-14T13:32:26.709Z,58.23
2024-02-14T13:34:28.729Z,58.35
2024-02-14T13:36:30.191Z,58.30
2024-02-14T13:38:31.700Z,58.45
2024-02-14T13:40:33.163Z,58.58
2024-02-14T13:42:34.780Z,58.36
2024-02-14T13:44:36.218Z,58.70
2024-02-14T13:46:37.745Z,58.61
2024-02-14T13:48:39.274Z,58.55
2024-02-14T13:50:40.860Z,58.38
2024-02-14T13:52:42.356Z,58.83
2024-02-14T13:54:43.819Z,58.67
2024-02-14T13:56:45.371Z,58.77
2024-02-14T13:58:46.800Z,58.56
2024-02-14T14:00:48.188Z,58.82
2024-02-14T14:02:49.617Z,58.94
2024-02-14T14:04:51.764Z,59.14
2024-02-14T14:06:53.301Z,58.99
2024-02-14T14:08:55.624Z,58.94
2024-02-14T14:10:57.047Z,58.96
2024-02-14T14:12:58.413Z,58.38
2024-02-14T14:14:59.841Z,58.49
2024-02-14T14:17:01.339Z,58.74
2024-02-14T14:19:02.985Z,58.71
2024-02-14T14:21:04.893Z,58.38
2024-02-14T14:23:07.258Z,58.35
2024-02-14T14:25:09.461Z,58.46
2024-02-14T14:27:14.842Z,58.46
2024-02-14T14:29:16.764Z,58.09
2024-02-14T14:31:18.243Z,58.50
2024-02-14T14:33:20.087Z,58.21
2024-02-14T14:35:21.608Z,58.21
2024-02-14T14:37:24.009Z,58.41
2024-02-14T14:39:25.382Z,58.06
2024-02-14T14:41:26.841Z,57.86
2024-02-14T14:43:29.107Z,57.67
2024-02-14T14:45:32.082Z,58.15
2024-02-14T14:47:33.715Z,57.77
2024-02-14T14:49:35.655Z,58.10
2024-02-14T14:51:37.258Z,58.08
2024-02-14T14:53:38.882Z,57.82
2024-02-14T14:55:40.295Z,58.06
2024-02-14T14:57:42.459Z,57.99
2024-02-14T14:59:44.680Z,57.86
2024-02-14T15:01:46.156Z,57.50
2024-02-14T15:03:47.669Z,57.98
2024-02-14T15:05:49.431Z,57.75
2024-02-14T15:07:51.333Z,58.04
2024-02-14T15:09:52.762Z,58.05
2024-02-14T15:11:54.300Z,57.84
2024-02-14T15:13:55.872Z,58.08
2024-02-14T15:15:59.099Z,57.83
2024-02-14T15:18:00.794Z,58.10
2024-02-14T15:20:04.336Z,58.10
2024-02-14T15:22:06.061Z,57.76
2024-02-14T15:24:08.073Z,57.82
2024-02-14T15:26:13.232Z,57.80
2024-02-14T15:28:27.437Z,57.78
2024-02-14T15:30:47.975Z,57.81
2024-02-14T15:33:08.184Z,58.23
2024-02-14T15:35:10.229Z,58.14
2024-02-14T15:37:11.724Z,58.00
2024-02-14T15:39:14.639Z,58.22
2024-02-14T15:41:16.221Z,58.03
2024-02-14T15:43:17.644Z,57.87
2024-02-14T15:45:19.240Z,58.01
2024-02-14T15:47:20.984Z,57.86
2024-02-14T15:49:22.345Z,58.14
2024-02-14T15:51:25.528Z,58.13
2024-02-14T15:53:28.154Z,58.00
2024-02-14T15:55:29.707Z,57.93
2024-02-14T15:57:32.164Z,57.82
2024-02-14T15:59:34.082Z,58.31
2024-02-14T16:01:35.524Z,57.87
2024-02-14T16:03:36.877Z,57.86
2024-02-14T16:05:38.369Z,57.96
2024-02-14T16:07:40.041Z,57.79
2024-02-14T16:09:41.391Z,58.15
2024-02-14T16:11:43.643Z,57.94
2024-02-14T16:13:45.070Z,57.73
2024-02-14T16:15:46.509Z,58.21
2024-02-14T16:17:48.075Z,58.16
2024-02-14T16:19:49.549Z,57.92
2024-02-14T16:21:59.059Z,57.92
2024-02-14T16:24:08.107Z,58.13
2024-02-14T16:26:09.519Z,58.43
2024-02-14T16:28:10.930Z,58.27
2024-02-14T16:30:12.398Z,58.73
2024-02-14T16:32:13.765Z,58.87
2024-02-14T16:34:15.319Z,58.78
2024-02-14T16:36:16.828Z,58.80
2024-02-14T16:38:18.918Z,58.98
2024-02-14T16:40:20.428Z,58.75
2024-02-14T16:42:21.824Z,58.96
2024-02-14T16:44:23.211Z,58.40
2024-02-14T16:46:24.816Z,58.68
2024-02-14T16:48:26.351Z,58.17
2024-02-14T16:50:30.010Z,58.24
2024-02-14T16:52:31.522Z,57.96
2024-02-14T16:54:33.292Z,57.80
2024-02-14T16:56:34.975Z,57.64
2024-02-14T16:58:36.389Z,57.77
2024-02-14T17:00:38.008Z,57.48
2024-02-14T17:02:40.736Z,57.54
2024-02-14T17:04:42.250Z,57.19
2024-02-14T17:06:43.923Z,57.16
2024-02-14T17:08:46.366Z,57.48
2024-02-14T17:10:47.761Z,57.24
2024-02-14T17:12:49.141Z,56.94
2024-02-14T17:14:50.722Z,57.01
2024-02-14T17:16:56.731Z,57.06
2024-02-14T17:18:58.290Z,56.92
2024-02-14T17:20:59.851Z,56.94
2024-02-14T17:23:01.908Z,57.36
2024-02-14T17:25:03.286Z,57.21
2024-02-14T17:27:04.733Z,56.81
2024-02-14T17:29:06.312Z,56.85
2024-02-14T17:31:07.665Z,56.82
2024-02-14T17:33:09.133Z,57.32
2024-02-14T17:35:10.891Z,57.37
2024-02-14T17:37:12.398Z,57.01
2024-02-14T17:39:14.055Z,57.41
2024-02-14T17:41:15.494Z,57.26
2024-02-14T17:43:17.181Z,57.35
2024-02-14T17:45:19.795Z,57.20
2024-02-14T17:47:21.875Z,57.10
2024-02-14T17:49:23.430Z,57.03
2024-02-14T17:51:24.882Z,57.39
2024-02-14T17:53:28.285Z,57.49
2024-02-14T17:55:29.704Z,57.22
2024-02-14T17:57:31.076Z,57.09
2024-02-14T17:59:32.975Z,57.19
2024-02-14T18:01:35.444Z,57.49
2024-02-14T18:03:36.812Z,57.28
2024-02-14T18:05:41.990Z,57.45
2024-02-14T18:07:43.604Z,57.62
2024-02-14T18:09:44.980Z,57.32
2024-02-14T18:11:46.362Z,57.52
2024-02-14T18:13:53.519Z,57.33
2024-02-14T18:15:54.988Z,57.49
2024-02-14T18:17:56.484Z,57.52
2024-02-14T18:19:58.041Z,57.57
2024-02-14T18:21:59.489Z,57.62
2024-02-14T18:24:01.048Z,57.57
2024-02-14T18:26:02.433Z,57.79
2024-02-14T18:28:04.230Z,57.66
2024-02-14T18:30:05.874Z,57.91
2024-02-14T18:32:09.478Z,57.48
2024-02-14T18:34:11.131Z,57.86
2024-02-14T18:36:12.747Z,57.52
2024-02-14T18:38:14.755Z,57.44
2024-02-14T18:40:16.176Z,57.61
2024-02-14T18:42:17.618Z,57.38
2024-02-14T18:44:19.074Z,57.77
2024-02-14T18:46:20.548Z,57.41
2024-02-14T18:48:22.188Z,57.19
2024-02-14T18:50:23.631Z,57.33
2024-02-14T18:52:27.917Z,57.23
2024-02-14T18:54:31.123Z,57.37
2024-02-14T18:56:33.715Z,57.22
2024-02-14T18:58:35.120Z,57.13
2024-02-14T19:00:36.569Z,57.18
2024-02-14T19:02:38.816Z,57.46
2024-02-14T19:04:40.198Z,57.64
2024-02-14T19:06:42.206Z,57.44
2024-02-14T19:08:43.759Z,57.47
2024-02-14T19:10:45.212Z,57.36
2024-02-14T19:12:46.588Z,57.01
2024-02-14T19:14:50.269Z,57.53
2024-02-14T19:16:51.906Z,56.99
2024-02-14T19:18:53.676Z,57.00
2024-02-14T19:20:55.390Z,57.34
2024-02-14T19:22:57.030Z,57.15
2024-02-14T19:24:58.390Z,57.36
2024-02-14T19:26:59.864Z,57.41
2024-02-14T19:29:02.752Z,57.08
2024-02-14T19:31:05.112Z,56.96
2024-02-14T19:33:06.661Z,57.41
2024-02-14T19:35:08.099Z,57.26
2024-02-14T19:37:10.211Z,57.04
2024-02-14T19:39:14.259Z,57.34
2024-02-14T19:41:15.736Z,56.94
2024-02-14T19:43:31.786Z,57.22
2024-02-14T19:45:38.095Z,57.06
2024-02-14T19:47:39.790Z,57.02
2024-02-14T19:49:42.510Z,57.21
2024-02-14T19:51:44.724Z,57.11
2024-02-14T19:53:46.182Z,57.26
2024-02-14T19:55:47.564Z,56.95
2024-02-14T19:57:50.000Z,57.30
2024-02-14T19:59:51.440Z,57.17
2024-02-14T20:01:53.140Z,57.22
2024-02-14T20:03:57.948Z,57.14
2024-02-14T20:05:59.760Z,57.34
2024-02-14T20:08:01.233Z,56.98
2024-02-14T20:10:04.596Z,57.20
2024-02-14T20:12:06.427Z,56.91
2024-02-14T20:14:10.015Z,56.98
2024-02-14T20:16:11.459Z,57.51
2024-02-14T20:18:15.312Z,57.45
2024-02-14T20:20:18.503Z,57.43
2024-02-14T20:22:20.929Z,57.09
2024-02-14T20:24:22.456Z,57.13
2024-02-14T20:26:24.308Z,57.33
2024-02-14T20:28:26.013Z,57.25
2024-02-14T20:30:30.773Z,57.38
2024-02-14T20:32:32.509Z,57.48
2024-02-14T20:34:33.970Z,56.92
2024-02-14T20:36:37.659Z,57.01
2024-02-14T20:38:39.689Z,57.03
2024-02-14T20:40:41.152Z,57.04
2024-02-14T20:42:43.015Z,56.87
2024-02-14T20:44:44.812Z,57.04
2024-02-14T20:46:52.121Z,57.13
2024-02-14T20:48:54.204Z,57.06
2024-02-14T20:50:55.936Z,57.13
2024-02-14T20:52:57.390Z,57.35
2024-02-14T20:54:58.905Z,56.92
2024-02-14T20:57:00.781Z,57.16
2024-02-14T20:59:10.749Z,56.87
2024-02-14T21:01:18.323Z,57.34
2024-02-14T21:03:19.798Z,57.39
2024-02-14T21:05:21.196Z,57.12
2024-02-14T21:07:22.686Z,56.93
2024-02-14T21:09:24.102Z,57.27
2024-02-14T21:11:25.507Z,57.01
2024-02-14T21:13:27.320Z,57.02
2024-02-14T21:15:30.484Z,56.88
2024-02-14T21:17:32.465Z,57.12
2024-02-14T21:19:34.168Z,57.17
2024-02-14T21:21:36.735Z,56.80
2024-02-14T21:23:38.431Z,56.85
2024-02-14T21:25:39.877Z,57.18
2024-02-14T21:27:41.301Z,56.75
2024-02-14T21:29:44.470Z,56.85
2024-02-14T21:31:45.980Z,56.73
2024-02-14T21:33:48.076Z,56.94
2024-02-14T21:35:51.030Z,56.66
2024-02-14T21:37:52.530Z,57.04
2024-02-14T21:39:53.890Z,56.65
2024-02-14T21:41:55.313Z,56.54
2024-02-14T21:43:56.747Z,56.50
2024-02-14T21:45:59.095Z,56.93
2024-02-14T21:48:02.127Z,56.77
2024-02-14T21:50:04.181Z,56.99
2024-02-14T21:52:08.153Z,56.85
2024-02-14T21:54:09.620Z,56.50
2024-02-14T21:56:10.998Z,56.54
2024-02-14T21:58:12.440Z,57.02
2024-02-14T22:00:13.989Z,56.55
2024-02-14T22:02:15.558Z,56.82
2024-02-14T22:04:17.796Z,56.70
2024-02-14T22:06:19.322Z,56.98
2024-02-14T22:08:20.738Z,57.00
2024-02-14T22:10:23.278Z,56.79
2024-02-14T22:12:24.702Z,56.50
2024-02-14T22:14:26.168Z,57.03
2024-02-14T22:16:27.552Z,56.55
2024-02-14T22:18:29.268Z,56.45
2024-02-14T22:20:32.080Z,55.89
2024-02-14T22:22:34.618Z,56.36
2024-02-14T22:24:36.034Z,56.35
2024-02-14T22:26:37.478Z,54.90
2024-02-14T22:28:39.170Z,53.83
2024-02-14T22:30:53.966Z,55.04
2024-02-14T22:32:55.618Z,54.29
2024-02-14T22:34:57.063Z,53.62
2024-02-14T22:36:58.430Z,53.70
2024-02-14T22:39:00.085Z,54.23
2024-02-14T22:41:02.068Z,54.46
2024-02-14T22:43:08.731Z,54.43
2024-02-14T22:45:11.783Z,55.55
2024-02-14T22:47:13.433Z,54.29
2024-02-14T22:49:14.884Z,55.00
2024-02-14T22:51:17.912Z,55.22
2024-02-14T22:53:19.263Z,55.38
2024-02-14T22:55:20.673Z,55.70
2024-02-14T22:57:22.027Z,55.69
2024-02-14T22:59:23.728Z,55.27
2024-02-14T23:01:25.168Z,56.06
2024-02-14T23:03:26.720Z,55.60
2024-02-14T23:05:28.607Z,55.38
2024-02-14T23:07:31.118Z,55.77
2024-02-14T23:09:32.513Z,56.19
2024-02-14T23:11:33.939Z,56.34
2024-02-14T23:13:35.431Z,56.59
2024-02-14T23:15:37.008Z,56.28
2024-02-14T23:17:38.466Z,57.13
2024-02-14T23:19:40.492Z,56.15
2024-02-14T23:21:42.140Z,56.28
2024-02-14T23:23:43.520Z,56.49
2024-02-14T23:25:47.823Z,56.56
2024-02-14T23:27:49.399Z,56.36
2024-02-14T23:29:51.052Z,56.46
2024-02-14T23:31:52.458Z,56.65
2024-02-14T23:33:54.002Z,56.19
2024-02-14T23:35:57.355Z,56.66
2024-02-14T23:37:58.758Z,56.44
2024-02-14T23:42:04.323Z,57.29
2024-02-14T23:44:05.869Z,57.14
2024-02-14T23:46:07.230Z,56.78
2024-02-14T23:48:08.730Z,56.97
2024-02-14T23:50:11.671Z,56.84
2024-02-14T23:52:13.596Z,56.74
2024-02-14T23:54:15.597Z,54.76
2024-02-14T23:56:17.049Z,54.82
2024-02-14T23:58:19.972Z,55.74
